Time;durP1;ratioP1;P1;durP2;ratioP2;P2;SDS_P1;SDS_P2;PMS_P1;PMS_P2;Temp;Humidity;BMP_temperature;BMP_pressure;BME280_temperature;BME280_humidity;BME280_pressure;Samples;Min_cycle;Max_cycle;Signal;HPM_P1;HPM_P2
2021/06/06 00:01:09;;;;;;;32.50;26.88;;;25.20;92.40;;;;;;5059913;28;20095;-82
2021/06/06 00:03:41;;;;;;;34.03;28.25;;;25.20;92.40;;;;;;5094570;28;20032;-82
2021/06/06 00:06:18;;;;;;;33.97;28.42;;;25.20;92.40;;;;;;5076239;28;20032;-82
2021/06/06 00:08:44;;;;;;;33.13;27.70;;;25.20;92.40;;;;;;5076541;28;20049;-82
2021/06/06 00:11:38;;;;;;;34.55;28.98;;;25.20;92.40;;;;;;5094170;28;20480;-82
2021/06/06 00:14:08;;;;;;;33.05;29.20;;;25.20;92.40;;;;;;5069313;28;20040;-82
2021/06/06 00:16:38;;;;;;;37.15;29.52;;;25.20;92.40;;;;;;5074732;28;20469;-82
2021/06/06 00:19:05;;;;;;;35.50;29.23;;;25.20;92.50;;;;;;5072671;28;20035;-82
2021/06/06 00:21:32;;;;;;;33.20;28.25;;;25.20;92.50;;;;;;5072726;28;20433;-82
2021/06/06 00:23:59;;;;;;;35.78;28.88;;;25.20;92.50;;;;;;5072492;28;20044;-83
2021/06/06 00:26:25;;;;;;;36.00;30.05;;;25.20;92.50;;;;;;5074085;28;20020;-82
2021/06/06 00:28:52;;;;;;;33.22;27.88;;;25.20;92.50;;;;;;5072763;28;20036;-82
2021/06/06 00:31:18;;;;;;;34.03;28.92;;;25.20;92.50;;;;;;5072384;28;20539;-82
2021/06/06 00:33:44;;;;;;;34.40;29.23;;;25.20;92.50;;;;;;5055245;28;20028;-82
2021/06/06 00:36:11;;;;;;;36.15;29.23;;;25.20;92.50;;;;;;5073748;28;20024;-82
2021/06/06 00:38:36;;;;;;;34.55;27.10;;;25.20;92.50;;;;;;5072613;28;20039;-82
2021/06/06 00:41:03;;;;;;;34.17;28.33;;;25.20;92.50;;;;;;5055702;28;20032;-82
2021/06/06 00:43:30;;;;;;;32.55;27.70;;;25.20;92.50;;;;;;5056145;28;20036;-82
2021/06/06 00:45:56;;;;;;;32.28;27.23;;;25.20;92.50;;;;;;5073528;28;20091;-82
2021/06/06 00:48:22;;;;;;;33.33;27.75;;;25.20;92.50;;;;;;5072053;28;20207;-82
2021/06/06 00:50:53;;;;;;;33.90;27.95;;;25.20;92.50;;;;;;5073673;28;20566;-82
2021/06/06 00:53:38;;;;;;;33.63;27.63;;;25.20;92.50;;;;;;5072017;28;20411;-82
2021/06/06 00:56:07;;;;;;;31.73;26.33;;;25.20;92.50;;;;;;5073307;28;20577;-82
2021/06/06 00:58:33;;;;;;;34.05;26.98;;;25.20;92.50;;;;;;5073363;28;20028;-82
2021/06/06 01:00:58;;;;;;;32.50;27.30;;;25.20;92.50;;;;;;5072116;28;20066;-81
2021/06/06 01:03:25;;;;;;;31.85;26.17;;;25.20;92.50;;;;;;5054916;28;20072;-82
2021/06/06 01:05:57;;;;;;;31.48;26.67;;;25.20;92.50;;;;;;5071775;28;20079;-82
2021/06/06 01:08:22;;;;;;;30.90;26.67;;;25.20;92.50;;;;;;5072639;28;20103;-81
2021/06/06 01:11:06;;;;;;;32.55;26.55;;;25.20;92.50;;;;;;5055255;28;20127;-81
2021/06/06 01:13:49;;;;;;;30.42;25.23;;;25.20;92.50;;;;;;5075712;28;20025;-81
2021/06/06 01:16:23;;;;;;;29.10;25.08;;;25.20;92.50;;;;;;5074990;28;20035;-81
2021/06/06 01:18:51;;;;;;;31.35;25.45;;;25.20;92.50;;;;;;5075082;28;20031;-81
2021/06/06 01:21:32;;;;;;;31.73;26.17;;;25.20;92.50;;;;;;5074902;28;20153;-81
2021/06/06 01:24:00;;;;;;;31.10;26.02;;;25.20;92.50;;;;;;5093502;28;20043;-81
2021/06/06 01:26:33;;;;;;;31.13;25.48;;;25.20;92.50;;;;;;5074300;28;20115;-81
2021/06/06 01:29:56;;;;;;;28.45;25.08;;;25.20;92.50;;;;;;5093161;28;20032;-80
2021/06/06 01:32:27;;;;;;;30.20;24.92;;;25.20;92.50;;;;;;4991019;28;20428;-81
2021/06/06 01:35:25;;;;;;;31.30;25.27;;;25.10;92.50;;;;;;4991363;28;20135;-81
2021/06/06 01:38:09;;;;;;;28.20;22.98;;;25.20;92.50;;;;;;5040181;28;20059;-81
2021/06/06 01:40:39;;;;;;;29.33;23.70;;;25.20;92.60;;;;;;5075358;28;20031;-81
2021/06/06 01:43:12;;;;;;;27.67;23.63;;;25.10;92.60;;;;;;5092943;28;20136;-84
2021/06/06 01:45:43;;;;;;;26.67;22.25;;;25.20;92.60;;;;;;5074976;28;20135;-81
2021/06/06 01:48:12;;;;;;;27.58;22.88;;;25.20;92.70;;;;;;5093046;28;20032;-81
2021/06/06 01:50:54;;;;;;;25.77;22.52;;;25.10;92.60;;;;;;5093020;28;20076;-82
2021/06/06 01:53:21;;;;;;;26.63;22.05;;;25.20;92.60;;;;;;5074592;28;20024;-82
2021/06/06 01:55:53;;;;;;;27.35;22.85;;;25.20;92.60;;;;;;5074260;28;20119;-81
2021/06/06 01:58:21;;;;;;;25.48;21.58;;;25.20;92.60;;;;;;5074298;28;20033;-82
2021/06/06 02:01:19;;;;;;;25.38;21.15;;;25.20;92.60;;;;;;5074828;28;20185;-82
2021/06/06 02:03:49;;;;;;;26.02;21.48;;;25.20;92.60;;;;;;5069638;28;20036;-81
2021/06/06 02:06:18;;;;;;;25.17;21.23;;;25.20;92.60;;;;;;5074373;28;20032;-81
2021/06/06 02:08:45;;;;;;;24.30;20.80;;;25.10;92.60;;;;;;5092528;28;20032;-80
2021/06/06 02:11:13;;;;;;;23.42;20.15;;;25.20;92.60;;;;;;5092196;28;20099;-81
2021/06/06 02:13:44;;;;;;;23.52;19.83;;;25.20;92.60;;;;;;5092379;28;20499;-81
2021/06/06 02:16:15;;;;;;;24.40;19.98;;;25.20;92.60;;;;;;5074183;28;20032;-81
2021/06/06 02:18:41;;;;;;;22.75;19.38;;;25.20;92.60;;;;;;5074459;28;20050;-81
2021/06/06 02:21:06;;;;;;;21.85;18.60;;;25.20;92.60;;;;;;5092378;28;20028;-81
2021/06/06 02:23:37;;;;;;;23.20;19.05;;;25.20;92.60;;;;;;5074209;28;20123;-81
2021/06/06 02:26:16;;;;;;;22.45;19.30;;;25.20;92.60;;;;;;5074679;28;20028;-81
2021/06/06 02:29:17;;;;;;;21.58;18.48;;;25.10;92.60;;;;;;5074467;28;20127;-81
2021/06/06 02:31:57;;;;;;;22.88;18.75;;;25.10;92.60;;;;;;5085004;28;20036;-81
2021/06/06 02:34:29;;;;;;;20.85;17.52;;;25.10;92.60;;;;;;5074055;28;20048;-81
2021/06/06 02:37:01;;;;;;;21.10;18.00;;;25.10;92.60;;;;;;5074339;28;20032;-81
2021/06/06 02:39:34;;;;;;;19.23;16.48;;;25.10;92.60;;;;;;5092044;28;20028;-81
2021/06/06 02:42:05;;;;;;;19.90;16.63;;;25.10;92.60;;;;;;5073794;28;20028;-81
2021/06/06 02:44:39;;;;;;;19.05;15.52;;;25.10;92.60;;;;;;5092220;28;20025;-81
2021/06/06 02:47:05;;;;;;;18.73;15.80;;;25.10;92.60;;;;;;5092757;28;20036;-81
2021/06/06 02:49:39;;;;;;;19.98;16.75;;;25.10;92.60;;;;;;5092476;28;20036;-81
2021/06/06 02:52:20;;;;;;;20.55;16.58;;;25.10;92.60;;;;;;5074332;28;20458;-81
2021/06/06 02:55:10;;;;;;;18.42;15.57;;;25.10;92.60;;;;;;5074099;28;20029;-81
2021/06/06 02:57:38;;;;;;;18.90;15.65;;;25.10;92.60;;;;;;5093938;28;20375;-81
2021/06/06 03:00:18;;;;;;;17.20;15.13;;;25.10;92.60;;;;;;5095794;28;20458;-82
2021/06/06 03:02:49;;;;;;;18.23;14.98;;;25.10;92.60;;;;;;5077677;28;20051;-81
2021/06/06 03:05:19;;;;;;;16.33;14.23;;;25.10;92.80;;;;;;5077495;28;20024;-82
2021/06/06 03:07:49;;;;;;;16.38;13.82;;;25.10;92.60;;;;;;5077430;28;20036;-82
2021/06/06 03:10:17;;;;;;;17.33;14.75;;;25.10;92.60;;;;;;5077281;28;20032;-81
2021/06/06 03:12:45;;;;;;;15.73;13.70;;;25.10;92.60;;;;;;5095669;28;20051;-81
2021/06/06 03:15:13;;;;;;;17.42;13.93;;;25.10;92.60;;;;;;5073728;28;20044;-82
2021/06/06 03:17:43;;;;;;;16.45;13.85;;;25.10;92.60;;;;;;5057556;28;20091;-80
2021/06/06 03:20:29;;;;;;;14.93;13.27;;;25.10;92.60;;;;;;5074739;28;20045;-81
2021/06/06 03:22:57;;;;;;;13.27;11.88;;;25.10;92.60;;;;;;5074093;28;20024;-81
2021/06/06 03:25:43;;;;;;;15.00;13.25;;;25.10;92.60;;;;;;5073712;28;20025;-81
2021/06/06 03:28:12;;;;;;;14.40;12.38;;;25.10;92.60;;;;;;5075367;28;20044;-80
2021/06/06 03:30:57;;;;;;;14.63;12.07;;;25.10;92.60;;;;;;5073500;28;20086;-80
2021/06/06 03:33:49;;;;;;;13.40;11.95;;;25.10;92.60;;;;;;5074700;28;20039;-80
2021/06/06 03:36:19;;;;;;;14.07;11.63;;;25.10;92.60;;;;;;5074936;28;20028;-84
2021/06/06 03:38:45;;;;;;;15.93;11.65;;;25.10;92.60;;;;;;5073704;28;20024;-81
2021/06/06 03:41:11;;;;;;;13.50;11.57;;;25.10;92.60;;;;;;5075021;28;20040;-81
2021/06/06 03:43:36;;;;;;;12.50;10.70;;;25.10;92.60;;;;;;5056693;28;20497;-81
2021/06/06 03:46:03;;;;;;;13.25;11.52;;;25.10;92.60;;;;;;5074670;28;20033;-81
2021/06/06 03:48:29;;;;;;;11.48;10.25;;;25.10;92.60;;;;;;5073148;28;20036;-80
2021/06/06 03:50:55;;;;;;;11.73;10.40;;;25.10;92.60;;;;;;5056991;28;20029;-81
2021/06/06 03:53:24;;;;;;;12.40;10.40;;;25.10;92.60;;;;;;5073117;28;20090;-81
2021/06/06 03:55:49;;;;;;;11.35;10.00;;;25.10;92.60;;;;;;5057048;28;20032;-81
2021/06/06 03:58:18;;;;;;;10.70;9.35;;;25.10;92.60;;;;;;5073177;28;20039;-80
2021/06/06 04:00:47;;;;;;;10.93;9.73;;;25.10;92.60;;;;;;5074620;28;20028;-81
2021/06/06 04:03:14;;;;;;;11.50;9.50;;;25.10;92.60;;;;;;5074587;28;20023;-80
2021/06/06 04:05:41;;;;;;;10.15;8.82;;;25.10;92.60;;;;;;5072658;28;20028;-81
2021/06/06 04:08:08;;;;;;;10.77;9.50;;;25.10;92.60;;;;;;5056647;28;20485;-81
2021/06/06 04:10:34;;;;;;;10.80;9.50;;;25.10;92.60;;;;;;5056128;28;20052;-81
2021/06/06 04:13:00;;;;;;;12.23;9.35;;;25.10;92.60;;;;;;5056529;28;20214;-81
2021/06/06 04:15:26;;;;;;;10.13;9.13;;;25.10;92.60;;;;;;5072679;28;20061;-81
2021/06/06 04:17:53;;;;;;;9.40;8.15;;;25.10;92.60;;;;;;5072846;28;20089;-81
2021/06/06 04:20:21;;;;;;;10.35;8.75;;;25.10;92.60;;;;;;5074079;28;20120;-84
2021/06/06 04:22:47;;;;;;;9.70;8.27;;;25.10;92.60;;;;;;5072889;28;20021;-80
2021/06/06 04:25:15;;;;;;;9.00;7.72;;;25.10;92.60;;;;;;5072679;28;20024;-81
2021/06/06 04:27:41;;;;;;;9.57;8.25;;;25.10;92.60;;;;;;5072377;28;20029;-81
2021/06/06 04:30:10;;;;;;;8.70;7.80;;;25.10;92.60;;;;;;5074028;28;20486;-81
2021/06/06 04:32:35;;;;;;;9.00;7.97;;;25.10;92.60;;;;;;5072199;28;20025;-81
2021/06/06 04:35:02;;;;;;;7.80;7.00;;;25.10;92.60;;;;;;5056139;28;20082;-81
2021/06/06 04:37:28;;;;;;;8.80;7.32;;;25.10;92.60;;;;;;5072151;28;20036;-81
2021/06/06 04:39:53;;;;;;;8.90;7.15;;;25.10;92.60;;;;;;5072669;28;20115;-83
2021/06/06 04:42:21;;;;;;;8.95;7.57;;;25.10;92.60;;;;;;5072686;28;20470;-81
2021/06/06 04:44:47;;;;;;;7.93;7.13;;;25.10;92.60;;;;;;5056226;28;20043;-81
2021/06/06 04:47:13;;;;;;;8.02;6.95;;;25.10;92.60;;;;;;5072328;28;20036;-81
2021/06/06 04:49:40;;;;;;;8.15;6.45;;;25.10;92.60;;;;;;5073260;28;20028;-81
2021/06/06 04:52:08;;;;;;;7.05;6.25;;;25.10;92.60;;;;;;5072238;28;20424;-81
2021/06/06 04:54:34;;;;;;;7.50;6.70;;;25.10;92.60;;;;;;5072086;28;20028;-81
2021/06/06 04:57:00;;;;;;;6.38;5.78;;;25.10;92.60;;;;;;5073102;28;20490;-81
2021/06/06 04:59:26;;;;;;;7.28;6.40;;;25.10;92.60;;;;;;5071884;28;20075;-81
2021/06/06 05:01:52;;;;;;;6.95;6.25;;;25.10;92.60;;;;;;5071752;28;20028;-82
2021/06/06 05:04:18;;;;;;;6.80;6.00;;;25.10;92.60;;;;;;5072108;28;20363;-81
2021/06/06 05:06:45;;;;;;;7.47;6.20;;;25.10;92.50;;;;;;5055081;28;20043;-81
2021/06/06 05:09:11;;;;;;;6.75;6.03;;;25.10;92.50;;;;;;5073288;28;20036;-81
2021/06/06 05:11:37;;;;;;;6.43;5.63;;;25.10;92.50;;;;;;5071689;28;20024;-81
2021/06/06 05:14:05;;;;;;;6.45;5.68;;;25.10;92.50;;;;;;5074246;28;20491;-82
2021/06/06 05:16:31;;;;;;;5.93;5.32;;;25.10;92.50;;;;;;5074939;28;20025;-82
2021/06/06 05:18:57;;;;;;;5.63;4.97;;;25.10;92.50;;;;;;5093193;28;20071;-82
2021/06/06 05:21:24;;;;;;;5.18;4.70;;;25.20;92.50;;;;;;5074723;28;20082;-81
2021/06/06 05:23:50;;;;;;;5.28;4.78;;;25.20;92.50;;;;;;5075067;28;20028;-81
2021/06/06 05:26:16;;;;;;;6.85;5.15;;;25.20;92.50;;;;;;5075183;28;20367;-81
2021/06/06 05:28:43;;;;;;;5.50;4.82;;;25.20;92.50;;;;;;5074929;28;20032;-81
2021/06/06 05:31:09;;;;;;;6.47;5.05;;;25.20;92.40;;;;;;5092938;28;20114;-81
2021/06/06 05:33:36;;;;;;;5.20;4.65;;;25.20;92.40;;;;;;5058094;28;20115;-81
2021/06/06 05:36:03;;;;;;;4.93;4.43;;;25.20;92.40;;;;;;5075070;28;20032;-81
2021/06/06 05:38:31;;;;;;;4.43;3.92;;;25.20;92.40;;;;;;5092796;28;20211;-82
2021/06/06 05:40:57;;;;;;;4.93;4.30;;;25.20;92.40;;;;;;5074809;28;20059;-82
2021/06/06 05:43:23;;;;;;;4.90;4.40;;;25.20;92.40;;;;;;5074761;28;20056;-82
2021/06/06 05:45:50;;;;;;;4.75;4.10;;;25.20;92.40;;;;;;5074504;28;20062;-82
2021/06/06 05:48:16;;;;;;;4.30;3.60;;;25.20;92.30;;;;;;5074903;28;20060;-82
2021/06/06 05:50:45;;;;;;;4.30;3.90;;;25.20;92.30;;;;;;5074555;28;20058;-83
2021/06/06 05:53:11;;;;;;;3.90;3.50;;;25.20;92.30;;;;;;5075277;28;20024;-82
2021/06/06 05:55:37;;;;;;;4.47;4.03;;;25.20;92.30;;;;;;5074600;28;20495;-82
2021/06/06 05:58:04;;;;;;;4.30;3.90;;;25.30;92.40;;;;;;5092928;28;20036;-82
2021/06/06 06:00:36;;;;;;;4.00;3.60;;;25.30;92.40;;;;;;5092253;28;20031;-83
2021/06/06 06:03:03;;;;;;;3.67;3.17;;;25.30;92.40;;;;;;5092818;28;20039;-81
2021/06/06 06:05:28;;;;;;;3.55;3.10;;;25.30;92.40;;;;;;5092366;28;20186;-83
2021/06/06 06:07:54;;;;;;;3.50;3.20;;;25.30;92.40;;;;;;5092811;28;20612;-81
2021/06/06 06:10:30;;;;;;;3.30;3.00;;;25.30;92.40;;;;;;5074693;28;20028;-82
2021/06/06 06:12:56;;;;;;;3.42;3.13;;;25.30;92.30;;;;;;5093262;28;20024;-82
2021/06/06 06:15:23;;;;;;;3.25;2.95;;;25.30;92.40;;;;;;5074724;28;20533;-82
2021/06/06 06:17:49;;;;;;;4.57;3.67;;;25.30;92.30;;;;;;5075021;28;20040;-82
2021/06/06 06:20:19;;;;;;;3.80;3.25;;;25.30;92.30;;;;;;5078203;28;20055;-83
2021/06/06 06:22:45;;;;;;;4.97;3.35;;;25.30;92.40;;;;;;5074289;28;20024;-83
2021/06/06 06:25:13;;;;;;;3.92;3.33;;;25.30;92.40;;;;;;5077093;28;20378;-82
2021/06/06 06:27:39;;;;;;;4.00;3.00;;;25.30;92.40;;;;;;5071867;28;20032;-83
2021/06/06 06:30:12;;;;;;;3.80;3.30;;;25.30;92.40;;;;;;5072019;28;20029;-82
2021/06/06 06:32:39;;;;;;;4.55;3.38;;;25.30;92.40;;;;;;5055877;28;20043;-83
2021/06/06 06:35:06;;;;;;;3.53;3.20;;;25.30;92.40;;;;;;5058070;28;20032;-82
2021/06/06 06:37:31;;;;;;;3.38;2.97;;;25.30;92.30;;;;;;5057822;28;20040;-84
2021/06/06 06:39:57;;;;;;;3.15;2.70;;;25.30;92.30;;;;;;5076090;28;20071;-82
2021/06/06 06:42:23;;;;;;;3.22;2.92;;;25.30;92.20;;;;;;5058136;28;20031;-83
2021/06/06 06:44:49;;;;;;;3.33;2.40;;;25.30;92.20;;;;;;5041098;28;20028;-82
2021/06/06 06:47:15;;;;;;;2.92;2.63;;;25.40;92.10;;;;;;5041471;28;20039;-82
2021/06/06 06:49:41;;;;;;;3.95;2.83;;;25.40;92.00;;;;;;5040980;28;20140;-82
2021/06/06 06:52:07;;;;;;;2.85;2.42;;;25.40;91.90;;;;;;5075931;28;20029;-82
2021/06/06 06:54:33;;;;;;;2.75;2.25;;;25.40;91.90;;;;;;5075751;28;20035;-85
2021/06/06 06:56:59;;;;;;;3.60;2.45;;;25.30;91.80;;;;;;5075403;28;20052;-83
2021/06/06 06:59:28;;;;;;;3.20;2.83;;;25.40;91.80;;;;;;5057822;28;20490;-81
2021/06/06 07:01:55;;;;;;;2.65;2.13;;;25.40;91.80;;;;;;5056889;28;20132;-82
2021/06/06 07:04:21;;;;;;;3.00;2.50;;;25.40;91.80;;;;;;5057642;28;20024;-83
2021/06/06 07:06:51;;;;;;;2.58;2.15;;;25.40;91.80;;;;;;5074918;28;20039;-83
2021/06/06 07:09:17;;;;;;;2.63;2.15;;;25.40;91.80;;;;;;5057959;28;20394;-83
2021/06/06 07:11:43;;;;;;;2.92;2.30;;;25.40;91.80;;;;;;5057332;28;20037;-83
2021/06/06 07:14:09;;;;;;;2.70;2.00;;;25.40;91.80;;;;;;5075241;28;20039;-83
2021/06/06 07:16:35;;;;;;;2.45;2.00;;;25.40;91.80;;;;;;5040686;28;20028;-86
2021/06/06 07:19:01;;;;;;;2.78;2.10;;;25.40;91.70;;;;;;5057621;28;20049;-83
2021/06/06 07:21:27;;;;;;;2.20;2.00;;;25.40;91.70;;;;;;5057459;28;20477;-83
2021/06/06 07:23:53;;;;;;;2.10;1.85;;;25.40;91.60;;;;;;5057395;28;20036;-83
2021/06/06 07:26:24;;;;;;;2.60;1.83;;;25.40;91.60;;;;;;5040781;28;20074;-83
2021/06/06 07:28:50;;;;;;;3.53;1.95;;;25.40;91.60;;;;;;5075334;28;20050;-83
2021/06/06 07:31:16;;;;;;;1.60;1.50;;;25.40;91.60;;;;;;5040910;28;20543;-82
2021/06/06 07:33:44;;;;;;;2.10;1.73;;;25.40;91.50;;;;;;5074854;28;20063;-82
2021/06/06 07:36:16;;;;;;;3.88;1.70;;;25.40;91.50;;;;;;5040623;28;20573;-82
2021/06/06 07:38:41;;;;;;;2.13;1.88;;;25.40;91.50;;;;;;5056780;28;20032;-82
2021/06/06 07:41:07;;;;;;;2.50;1.52;;;25.40;91.40;;;;;;5057123;28;20035;-83
2021/06/06 07:43:33;;;;;;;1.52;1.38;;;25.40;91.30;;;;;;5056963;28;20032;-84
2021/06/06 07:46:01;;;;;;;1.98;1.70;;;25.40;91.40;;;;;;5040309;28;20052;-84
2021/06/06 07:48:26;;;;;;;2.17;1.50;;;25.40;91.40;;;;;;5040372;28;20036;-82
2021/06/06 07:50:53;;;;;;;1.98;1.58;;;25.40;91.30;;;;;;5056601;28;20029;-82
2021/06/06 07:53:21;;;;;;;1.50;1.30;;;25.40;91.30;;;;;;5074600;28;20086;-83
2021/06/06 07:55:47;;;;;;;1.73;1.25;;;25.40;91.30;;;;;;5056695;28;20044;-82
2021/06/06 07:58:18;;;;;;;2.05;1.55;;;25.40;91.30;;;;;;5074832;28;20037;-82
2021/06/06 08:00:44;;;;;;;1.50;1.40;;;25.40;91.30;;;;;;5056479;28;20021;-82
2021/06/06 08:03:10;;;;;;;1.67;1.35;;;25.40;91.30;;;;;;5056104;28;20082;-82
2021/06/06 08:05:37;;;;;;;1.55;1.45;;;25.40;91.20;;;;;;5056701;28;20040;-82
2021/06/06 08:08:04;;;;;;;2.33;1.67;;;25.40;91.20;;;;;;5055603;28;20051;-82
2021/06/06 08:10:32;;;;;;;2.17;1.40;;;25.40;91.10;;;;;;5074287;28;20378;-84
2021/06/06 08:12:58;;;;;;;1.73;1.20;;;25.40;91.10;;;;;;5056349;28;20024;-81
2021/06/06 08:15:24;;;;;;;2.00;1.27;;;25.40;91.10;;;;;;5056242;28;20486;-81
2021/06/06 08:17:50;;;;;;;2.13;1.40;;;25.40;91.10;;;;;;5056626;28;20037;-82
2021/06/06 08:20:23;;;;;;;1.83;1.42;;;25.40;91.10;;;;;;5074520;28;20067;-81
2021/06/06 08:22:49;;;;;;;1.83;1.40;;;25.40;91.10;;;;;;5056259;28;20028;-82
2021/06/06 08:25:16;;;;;;;1.45;1.30;;;25.40;91.10;;;;;;5074699;28;20103;-82
2021/06/06 08:27:43;;;;;;;2.00;1.10;;;25.40;91.10;;;;;;5074004;28;20032;-83
2021/06/06 08:30:37;;;;;;;1.35;1.20;;;25.40;91.10;;;;;;5056282;28;20078;-82
2021/06/06 08:33:04;;;;;;;1.60;1.23;;;25.50;91.20;;;;;;5054964;28;20044;-83
2021/06/06 08:35:29;;;;;;;2.58;1.33;;;25.50;91.10;;;;;;5048063;28;20287;-81
2021/06/06 08:37:55;;;;;;;1.20;1.10;;;25.40;91.00;;;;;;5022341;28;20039;-81
2021/06/06 08:40:33;;;;;;;1.67;1.10;;;25.50;91.00;;;;;;5073710;28;20024;-82
2021/06/06 08:43:01;;;;;;;1.52;1.15;;;25.50;91.00;;;;;;5055668;28;20024;-82
2021/06/06 08:45:34;;;;;;;1.25;1.05;;;25.50;91.00;;;;;;5056083;28;20029;-82
2021/06/06 08:48:04;;;;;;;1.35;1.25;;;25.40;91.00;;;;;;5055405;28;20461;-82
2021/06/06 08:50:37;;;;;;;1.55;1.17;;;25.40;91.00;;;;;;5055672;28;20031;-82
2021/06/06 08:53:22;;;;;;;1.10;0.98;;;25.50;91.00;;;;;;5073549;28;20059;-81
2021/06/06 08:56:20;;;;;;;1.40;1.17;;;25.50;91.00;;;;;;5072552;28;20025;-83
2021/06/06 08:59:08;;;;;;;1.30;1.20;;;25.50;90.90;;;;;;5054869;28;20040;-83
2021/06/06 09:01:43;;;;;;;1.38;1.23;;;25.40;90.80;;;;;;5072272;28;20116;-82
2021/06/06 09:04:17;;;;;;;1.48;1.00;;;25.40;90.80;;;;;;5073244;28;20138;-82
2021/06/06 09:06:52;;;;;;;1.10;1.00;;;25.50;90.90;;;;;;5055394;28;20043;-83
2021/06/06 09:09:26;;;;;;;1.27;0.80;;;25.40;90.80;;;;;;5073025;28;20020;-83
2021/06/06 09:11:56;;;;;;;0.90;0.90;;;25.50;90.90;;;;;;5073018;28;20553;-83
2021/06/06 09:14:22;;;;;;;1.17;0.82;;;25.50;90.90;;;;;;5072880;28;20045;-83
2021/06/06 09:16:53;;;;;;;0.95;0.80;;;25.50;90.90;;;;;;5038319;28;20024;-84
2021/06/06 09:19:20;;;;;;;0.90;0.90;;;25.50;90.90;;;;;;5055047;28;20024;-82
2021/06/06 09:21:57;;;;;;;1.33;1.00;;;25.50;90.80;;;;;;5073124;28;20025;-82
2021/06/06 09:24:38;;;;;;;1.05;0.95;;;25.50;90.60;;;;;;5055092;28;20032;-82
2021/06/06 09:27:27;;;;;;;1.10;1.00;;;25.50;90.60;;;;;;5054668;28;20047;-82
2021/06/06 09:30:22;;;;;;;1.77;1.05;;;25.50;90.70;;;;;;5072813;28;20107;-83
2021/06/06 09:33:01;;;;;;;0.80;0.80;;;25.50;90.70;;;;;;5051432;28;20119;-84
2021/06/06 09:35:32;;;;;;;1.23;1.00;;;25.50;90.70;;;;;;5054926;28;20028;-84
2021/06/06 09:38:30;;;;;;;1.10;1.00;;;25.50;90.80;;;;;;5072823;28;20039;-82
2021/06/06 09:41:08;;;;;;;1.05;0.75;;;25.50;90.70;;;;;;5047746;28;20040;-82
2021/06/06 09:43:34;;;;;;;0.75;0.68;;;25.50;90.70;;;;;;5072968;28;20025;-82
2021/06/06 09:46:15;;;;;;;1.30;0.90;;;25.50;90.60;;;;;;5054764;28;20484;-82
2021/06/06 09:48:43;;;;;;;0.98;0.70;;;25.50;90.60;;;;;;5054888;28;20051;-82
2021/06/06 09:51:14;;;;;;;0.70;0.60;;;25.50;90.60;;;;;;5072191;28;20431;-82
2021/06/06 09:53:41;;;;;;;0.70;0.70;;;25.50;90.60;;;;;;5072913;28;20035;-82
2021/06/06 09:56:22;;;;;;;1.27;0.88;;;25.50;90.50;;;;;;5054299;28;20067;-82
2021/06/06 09:58:49;;;;;;;0.75;0.70;;;25.50;90.40;;;;;;5072708;28;20075;-83
2021/06/06 10:01:29;;;;;;;0.50;0.50;;;25.50;90.40;;;;;;5038077;28;20202;-82
2021/06/06 10:04:01;;;;;;;0.80;0.80;;;25.50;90.40;;;;;;5072323;28;20032;-83
2021/06/06 10:06:34;;;;;;;1.10;1.00;;;25.50;90.30;;;;;;5056363;28;20025;-83
2021/06/06 10:09:17;;;;;;;0.73;0.57;;;25.50;90.20;;;;;;5058410;28;20024;-83
2021/06/06 10:12:01;;;;;;;0.98;0.77;;;25.50;90.20;;;;;;5076764;28;20024;-83
2021/06/06 10:14:42;;;;;;;0.98;0.70;;;25.50;90.20;;;;;;5058025;28;20040;-83
2021/06/06 10:17:13;;;;;;;0.80;0.70;;;25.50;90.10;;;;;;5057985;28;20478;-83
2021/06/06 10:19:45;;;;;;;1.00;0.90;;;25.50;90.10;;;;;;5058690;28;20036;-81
2021/06/06 10:22:27;;;;;;;0.90;0.80;;;25.50;90.10;;;;;;5058113;28;20031;-82
2021/06/06 10:24:59;;;;;;;0.70;0.60;;;25.50;90.10;;;;;;5058319;28;20355;-85
2021/06/06 10:27:32;;;;;;;0.47;0.47;;;25.50;90.10;;;;;;5076073;28;20025;-82
2021/06/06 10:30:06;;;;;;;0.50;0.50;;;25.50;90.20;;;;;;5057689;28;20024;-82
2021/06/06 10:32:39;;;;;;;0.60;0.60;;;25.50;90.10;;;;;;5075564;28;20025;-83
2021/06/06 10:35:19;;;;;;;0.40;0.40;;;25.50;90.10;;;;;;5076131;28;20075;-82
2021/06/06 10:37:47;;;;;;;0.77;0.65;;;25.50;90.10;;;;;;5057870;28;20032;-82
2021/06/06 10:40:44;;;;;;;0.60;0.60;;;25.50;90.10;;;;;;5075625;28;20028;-82
2021/06/06 10:43:30;;;;;;;0.80;0.60;;;25.50;90.00;;;;;;5077368;28;20032;-82
2021/06/06 10:46:09;;;;;;;0.75;0.65;;;25.50;90.00;;;;;;5057835;28;20445;-84
2021/06/06 10:49:11;;;;;;;0.63;0.50;;;25.50;90.00;;;;;;5058251;28;20040;-82
2021/06/06 10:51:41;;;;;;;0.60;0.50;;;25.50;90.00;;;;;;5035423;28;20037;-83
2021/06/06 10:54:21;;;;;;;0.60;0.60;;;25.50;90.00;;;;;;5057440;28;20032;-82
2021/06/06 10:56:51;;;;;;;0.60;0.50;;;25.50;90.00;;;;;;5075516;28;20360;-83
2021/06/06 10:59:53;;;;;;;0.50;0.50;;;25.60;90.10;;;;;;5075423;28;20041;-82
2021/06/06 11:02:29;;;;;;;0.60;0.50;;;25.60;90.00;;;;;;5052993;28;20371;-83
2021/06/06 11:04:56;;;;;;;0.73;0.50;;;25.60;90.00;;;;;;5075326;28;20467;-82
2021/06/06 11:07:30;;;;;;;0.40;0.40;;;25.60;90.00;;;;;;5057269;28;20028;-83
2021/06/06 11:10:18;;;;;;;0.40;0.40;;;25.60;90.00;;;;;;5057567;28;20092;-83
2021/06/06 11:12:47;;;;;;;0.47;0.47;;;25.60;89.90;;;;;;5059650;28;20024;-83
2021/06/06 11:15:31;;;;;;;0.40;0.40;;;25.60;89.90;;;;;;5089294;28;20059;-83
2021/06/06 11:18:21;;;;;;;0.47;0.47;;;25.60;89.90;;;;;;5094399;28;20508;-82
2021/06/06 11:20:52;;;;;;;0.40;0.40;;;25.60;89.90;;;;;;5083275;28;20484;-83
2021/06/06 11:23:31;;;;;;;0.40;0.40;;;25.60;89.90;;;;;;5095409;28;20020;-83
2021/06/06 11:25:57;;;;;;;0.40;0.40;;;25.60;90.00;;;;;;5077388;28;20032;-83
2021/06/06 11:28:23;;;;;;;0.40;0.40;;;25.60;89.90;;;;;;5095415;28;20039;-83
2021/06/06 11:30:50;;;;;;;0.60;0.40;;;25.60;89.70;;;;;;5079205;28;20026;-83
2021/06/06 11:33:32;;;;;;;0.32;0.32;;;25.60;89.70;;;;;;5077704;28;20079;-83
2021/06/06 11:35:58;;;;;;;0.50;0.50;;;25.60;89.60;;;;;;5077181;28;20108;-83
2021/06/06 11:38:41;;;;;;;0.38;0.38;;;25.60;89.70;;;;;;5060053;28;20126;-82
2021/06/06 11:41:07;;;;;;;0.73;0.50;;;25.60;89.60;;;;;;5094633;28;20410;-82
2021/06/06 11:43:39;;;;;;;0.40;0.40;;;25.60;89.70;;;;;;5056270;28;20027;-83
2021/06/06 11:46:20;;;;;;;0.32;0.32;;;25.60;89.40;;;;;;5074902;28;20173;-83
2021/06/06 11:48:59;;;;;;;0.30;0.30;;;25.60;89.20;;;;;;5056779;28;20028;-82
2021/06/06 11:51:52;;;;;;;0.30;0.30;;;25.70;89.50;;;;;;5056446;28;20493;-82
2021/06/06 11:54:28;;;;;;;0.50;0.50;;;25.70;89.50;;;;;;5051615;28;20029;-83
2021/06/06 11:56:56;;;;;;;0.50;0.40;;;25.60;89.20;;;;;;5056483;28;20029;-83
2021/06/06 12:00:00;;;;;;;0.32;0.32;;;25.70;89.30;;;;;;5074078;28;20031;-83
2021/06/06 12:02:31;;;;;;;0.30;0.30;;;25.70;89.20;;;;;;5051175;28;20146;-82
2021/06/06 12:05:08;;;;;;;0.40;0.40;;;25.70;89.00;;;;;;5056771;28;20070;-84
2021/06/06 12:07:35;;;;;;;0.30;0.30;;;25.70;89.00;;;;;;5074788;28;20064;-82
2021/06/06 12:10:03;;;;;;;0.50;0.30;;;25.70;89.10;;;;;;5023898;28;20032;-83
2021/06/06 12:12:36;;;;;;;0.30;0.30;;;25.70;89.20;;;;;;5074320;28;20028;-82
2021/06/06 12:15:05;;;;;;;0.43;0.32;;;25.70;89.20;;;;;;5056354;28;20049;-82
2021/06/06 12:17:30;;;;;;;0.30;0.30;;;25.70;89.00;;;;;;5056849;28;20028;-81
2021/06/06 12:19:59;;;;;;;0.38;0.38;;;25.70;88.90;;;;;;5040144;28;20039;-82
2021/06/06 12:22:32;;;;;;;0.30;0.30;;;25.70;88.80;;;;;;5073675;28;20127;-82
2021/06/06 12:25:18;;;;;;;0.50;0.40;;;25.70;89.10;;;;;;5074215;28;20021;-82
2021/06/06 12:27:53;;;;;;;0.30;0.30;;;25.70;89.10;;;;;;5056331;28;20036;-84
2021/06/06 12:30:25;;;;;;;0.40;0.38;;;25.70;89.20;;;;;;5072974;28;20029;-82
2021/06/06 12:33:11;;;;;;;0.38;0.38;;;25.70;89.20;;;;;;5074037;28;20020;-83
2021/06/06 12:35:43;;;;;;;0.68;0.47;;;25.70;89.20;;;;;;5056177;28;20025;-82
2021/06/06 12:38:12;;;;;;;0.93;0.55;;;25.70;89.20;;;;;;5073224;28;20040;-83
2021/06/06 12:40:39;;;;;;;0.40;0.40;;;25.70;89.20;;;;;;5056298;28;20029;-82
2021/06/06 12:43:06;;;;;;;0.75;0.60;;;25.70;89.20;;;;;;5039534;28;20031;-83
2021/06/06 12:45:35;;;;;;;0.45;0.45;;;25.70;89.20;;;;;;5073627;28;20450;-82
2021/06/06 12:48:04;;;;;;;0.82;0.63;;;25.70;89.20;;;;;;5073444;28;20039;-82
2021/06/06 12:50:31;;;;;;;0.40;0.40;;;25.70;89.30;;;;;;5055438;28;20369;-83
2021/06/06 12:53:06;;;;;;;0.50;0.50;;;25.70;89.50;;;;;;5039200;28;20029;-82
2021/06/06 12:55:38;;;;;;;0.60;0.60;;;25.70;89.50;;;;;;5055373;28;20040;-82
2021/06/06 12:58:07;;;;;;;0.70;0.45;;;25.70;89.40;;;;;;5055580;28;20033;-82
2021/06/06 13:00:33;;;;;;;0.85;0.52;;;25.70;89.40;;;;;;5054665;28;20032;-84
2021/06/06 13:03:00;;;;;;;0.90;0.50;;;25.70;89.40;;;;;;5055364;28;20028;-82